Time;durP1;ratioP1;P1;durP2;ratioP2;P2;SDS_P1;SDS_P2;PMS_P1;PMS_P2;Temp;Humidity;BMP_temperature;BMP_pressure;BME280_temperature;BME280_humidity;BME280_pressure;Samples;Min_cycle;Max_cycle;Signal;HPM_P1;HPM_P2
2021/08/14 00:02:02;;;;;;;9.85;6.78;;;;;;;20.51;79.32;98064.31;5113011;28;20434;-73
2021/08/14 00:04:27;;;;;;;10.90;6.60;;;;;;;20.44;79.59;98065.00;5134592;27;20023;-73
2021/08/14 00:06:53;;;;;;;12.30;7.47;;;;;;;20.40;79.27;98058.13;5106954;27;20037;-74
2021/08/14 00:09:18;;;;;;;9.55;6.80;;;;;;;20.40;79.97;98063.56;5133681;27;20031;-75
2021/08/14 00:11:44;;;;;;;8.80;6.97;;;;;;;20.31;79.53;98065.28;5131383;27;20026;-74
2021/08/14 00:14:10;;;;;;;10.30;6.90;;;;;;;20.29;80.72;98064.59;5117697;27;20047;-75
2021/08/14 00:16:35;;;;;;;10.80;7.10;;;;;;;20.30;79.65;98050.00;5136567;27;20027;-75
2021/08/14 00:19:01;;;;;;;10.55;7.18;;;;;;;20.34;80.90;98058.72;5125019;27;20108;-75
2021/08/14 00:21:45;;;;;;;11.60;7.10;;;;;;;20.35;80.31;98060.44;5127932;27;20035;-75
2021/08/14 00:24:10;;;;;;;12.13;7.38;;;;;;;20.29;80.66;98067.31;5122483;27;20548;-75
2021/08/14 00:26:36;;;;;;;10.27;6.85;;;;;;;20.33;79.77;98071.44;5133226;27;20133;-75
2021/08/14 00:29:02;;;;;;;8.80;6.63;;;;;;;20.30;80.32;98068.19;5106198;27;20031;-75
2021/08/14 00:31:27;;;;;;;8.52;6.35;;;;;;;20.36;80.10;98079.34;5117043;27;20402;-75
2021/08/14 00:33:53;;;;;;;8.93;6.93;;;;;;;20.32;80.42;98082.47;5097275;28;20088;-75
2021/08/14 00:36:19;;;;;;;18.38;8.10;;;;;;;20.30;80.97;98081.75;5115389;27;20111;-75
2021/08/14 00:38:44;;;;;;;13.38;8.55;;;;;;;20.02;82.22;98081.56;5115208;28;20034;-75
2021/08/14 00:41:10;;;;;;;13.50;7.97;;;;;;;19.94;82.30;98088.66;5115440;27;20410;-75
2021/08/14 00:43:35;;;;;;;13.27;9.32;;;;;;;19.83;82.80;98077.94;5102414;27;20062;-76
2021/08/14 00:46:01;;;;;;;12.25;8.40;;;;;;;19.55;85.01;98087.72;5108826;27;20037;-75
2021/08/14 00:48:27;;;;;;;14.70;8.68;;;;;;;19.46;86.32;98086.69;5128505;27;20110;-75
2021/08/14 00:50:53;;;;;;;14.02;8.30;;;;;;;19.39;86.86;98081.91;5114607;27;20020;-75
2021/08/14 00:53:19;;;;;;;27.48;7.90;;;;;;;19.42;86.54;98085.22;5134449;27;20011;-74
2021/08/14 00:55:45;;;;;;;9.77;7.63;;;;;;;19.36;86.82;98071.31;5124774;27;20027;-75
2021/08/14 00:58:12;;;;;;;17.25;7.88;;;;;;;19.38;86.84;98066.63;5103717;27;20035;-74
2021/08/14 01:00:38;;;;;;;13.05;7.50;;;;;;;19.42;86.72;98081.66;5134111;27;20048;-75
2021/08/14 01:03:03;;;;;;;15.13;7.45;;;;;;;19.38;86.83;98072.06;5108629;27;20111;-75
2021/08/14 01:05:29;;;;;;;11.23;7.90;;;;;;;19.35;87.50;98075.00;5128221;27;20102;-74
2021/08/14 01:07:55;;;;;;;9.82;6.93;;;;;;;19.34;87.63;98070.59;5112453;27;20030;-75
2021/08/14 01:10:24;;;;;;;15.10;7.38;;;;;;;19.34;87.98;98067.91;5102944;28;20088;-75
2021/08/14 01:12:50;;;;;;;9.55;7.10;;;;;;;19.34;87.77;98067.91;5092887;28;20020;-74
2021/08/14 01:15:16;;;;;;;17.02;7.20;;;;;;;19.37;87.72;98073.03;5115934;27;20027;-75
2021/08/14 01:17:41;;;;;;;15.27;7.78;;;;;;;19.41;88.28;98072.66;5096947;27;20525;-75
2021/08/14 01:20:08;;;;;;;13.00;8.05;;;;;;;19.38;88.06;98074.78;5115228;27;20019;-75
2021/08/14 01:22:35;;;;;;;25.70;7.90;;;;;;;19.38;87.80;98066.63;5109685;27;20034;-74
2021/08/14 01:25:04;;;;;;;11.40;7.70;;;;;;;19.36;88.33;98071.31;5131523;27;20061;-75
2021/08/14 01:27:29;;;;;;;14.13;7.80;;;;;;;19.27;88.97;98061.28;5114227;27;20031;-76
2021/08/14 01:29:55;;;;;;;13.38;7.47;;;;;;;19.33;88.39;98056.19;5099575;27;20505;-75
2021/08/14 01:32:21;;;;;;;18.67;7.40;;;;;;;19.34;88.45;98057.03;5109316;28;20070;-75
2021/08/14 01:34:47;;;;;;;9.88;7.60;;;;;;;19.27;88.79;98062.16;5117225;27;20506;-75
2021/08/14 01:37:13;;;;;;;11.20;7.80;;;;;;;19.19;89.42;98052.97;5112985;28;20031;-75
2021/08/14 01:39:38;;;;;;;10.07;7.93;;;;;;;19.21;90.27;98056.41;5118654;27;20102;-74
2021/08/14 01:42:06;;;;;;;11.18;7.57;;;;;;;19.15;90.55;98062.38;5119437;27;20410;-74
2021/08/14 01:44:32;;;;;;;15.00;7.68;;;;;;;19.14;90.11;98055.22;5116476;27;20092;-74
2021/08/14 01:46:58;;;;;;;11.70;7.75;;;;;;;19.07;90.47;98054.94;5117044;27;20027;-74
2021/08/14 01:49:24;;;;;;;13.90;7.75;;;;;;;19.04;90.67;98063.31;5113786;27;20117;-74
2021/08/14 01:51:50;;;;;;;10.77;7.18;;;;;;;19.02;90.09;98069.88;5101430;28;20570;-75
2021/08/14 01:54:16;;;;;;;11.18;7.57;;;;;;;19.01;88.73;98066.28;5114958;27;20024;-74
2021/08/14 01:56:43;;;;;;;12.65;7.00;;;;;;;19.01;88.86;98065.47;5119800;27;20398;-74
2021/08/14 01:59:09;;;;;;;12.60;7.55;;;;;;;18.98;89.16;98060.31;5107293;27;21384;-74
2021/08/14 02:01:35;;;;;;;9.63;7.40;;;;;;;18.87;89.81;98059.38;5125241;27;20041;-74
2021/08/14 02:04:01;;;;;;;10.18;7.38;;;;;;;18.87;89.51;98053.97;5127881;27;20490;-75
2021/08/14 02:06:27;;;;;;;12.40;7.60;;;;;;;18.82;90.22;98050.81;5126398;27;20027;-74
2021/08/14 02:08:54;;;;;;;10.82;8.13;;;;;;;18.74;90.25;98047.88;5098042;27;20176;-74
2021/08/14 02:11:29;;;;;;;11.45;7.15;;;;;;;18.71;90.93;98055.41;5100245;28;20066;-74
2021/08/14 02:13:55;;;;;;;14.05;7.63;;;;;;;18.73;91.60;98067.00;5090594;28;20037;-74
2021/08/14 02:16:22;;;;;;;10.25;7.63;;;;;;;18.65;91.85;98058.66;5112055;28;20038;-74
2021/08/14 02:18:47;;;;;;;16.73;7.75;;;;;;;18.66;91.90;98066.66;5116808;27;20517;-74
2021/08/14 02:21:13;;;;;;;10.48;7.88;;;;;;;18.59;92.10;98049.22;5120057;27;20024;-74
2021/08/14 02:23:40;;;;;;;11.40;8.27;;;;;;;18.53;93.32;98049.75;5106451;27;20109;-74
2021/08/14 02:26:06;;;;;;;27.00;8.25;;;;;;;18.53;93.82;98060.56;5119787;27;20023;-74
2021/08/14 02:28:32;;;;;;;11.02;7.85;;;;;;;18.50;93.99;98055.41;5117407;27;20030;-74
2021/08/14 02:30:59;;;;;;;13.68;7.90;;;;;;;18.55;92.98;98055.88;5115838;27;20028;-75
2021/08/14 02:33:25;;;;;;;11.20;7.43;;;;;;;18.55;92.38;98061.28;5120694;27;20027;-75
2021/08/14 02:35:50;;;;;;;14.57;7.68;;;;;;;18.53;93.09;98066.00;5116525;27;20042;-75
2021/08/14 02:38:17;;;;;;;11.02;7.78;;;;;;;18.49;93.20;98061.81;5127663;27;20031;-76
2021/08/14 02:40:46;;;;;;;10.48;8.27;;;;;;;18.34;93.57;98058.53;5095475;28;20035;-75
2021/08/14 02:43:12;;;;;;;15.20;7.38;;;;;;;18.31;95.20;98071.50;5116627;27;20478;-75
2021/08/14 02:45:38;;;;;;;21.15;9.00;;;;;;;18.23;96.09;98065.88;5114575;27;20027;-75
2021/08/14 02:48:04;;;;;;;11.55;7.88;;;;;;;18.18;96.15;98054.56;5099993;28;20118;-75
2021/08/14 02:50:29;;;;;;;15.65;8.68;;;;;;;18.27;96.17;98056.50;5101346;27;20062;-75
2021/08/14 02:52:55;;;;;;;14.18;8.80;;;;;;;18.27;96.37;98070.06;5122762;27;20051;-75
2021/08/14 02:55:20;;;;;;;13.48;8.35;;;;;;;18.28;96.07;98074.44;5111290;28;20092;-75
2021/08/14 02:57:46;;;;;;;11.50;8.23;;;;;;;18.35;94.23;98070.25;5124144;27;20031;-75
2021/08/14 03:00:12;;;;;;;14.68;7.63;;;;;;;18.28;94.75;98078.03;5116026;27;20059;-75
2021/08/14 03:02:38;;;;;;;22.58;8.93;;;;;;;18.28;95.68;98077.16;5111289;28;20055;-75
2021/08/14 03:05:04;;;;;;;18.70;9.70;;;;;;;18.29;95.79;98078.91;5100756;27;20046;-75
2021/08/14 03:07:33;;;;;;;11.23;8.07;;;;;;;18.29;94.75;98089.72;5118254;27;20038;-75
2021/08/14 03:09:59;;;;;;;13.25;8.95;;;;;;;18.24;95.83;98081.13;5121145;27;20031;-75
2021/08/14 03:12:25;;;;;;;11.05;8.63;;;;;;;18.27;94.97;98091.72;5111073;28;20084;-75
2021/08/14 03:14:51;;;;;;;14.63;7.80;;;;;;;18.37;93.36;98092.63;5112462;28;20031;-75
2021/08/14 03:17:17;;;;;;;13.75;8.40;;;;;;;18.34;93.49;98091.06;5114926;27;20417;-76
2021/08/14 03:19:43;;;;;;;12.57;8.27;;;;;;;18.28;94.01;98097.00;5115889;27;20038;-77
2021/08/14 03:22:09;;;;;;;13.80;7.97;;;;;;;18.26;94.35;98095.41;5114806;27;20023;-77
2021/08/14 03:24:35;;;;;;;12.10;8.50;;;;;;;18.16;95.58;98099.88;5119506;27;20071;-77
2021/08/14 03:27:01;;;;;;;14.80;8.30;;;;;;;18.12;96.68;98104.66;5096393;27;20027;-77
2021/08/14 03:29:27;;;;;;;26.02;9.23;;;;;;;18.11;96.43;98094.00;5120468;27;20411;-77
2021/08/14 03:31:52;;;;;;;17.50;9.27;;;;;;;17.97;98.08;98099.66;5118227;27;20031;-76
2021/08/14 03:34:18;;;;;;;17.58;9.20;;;;;;;18.08;96.82;98105.06;5104187;28;20616;-78
2021/08/14 03:36:44;;;;;;;23.08;10.05;;;;;;;17.94;98.38;98099.94;5121132;28;20497;-77
2021/08/14 03:39:09;;;;;;;14.05;8.90;;;;;;;17.94;99.12;98105.34;5117172;28;20079;-77
2021/08/14 03:41:35;;;;;;;15.52;9.05;;;;;;;17.95;98.21;98113.34;5114409;28;20053;-77
2021/08/14 03:44:02;;;;;;;20.13;9.38;;;;;;;17.90;97.93;98104.75;5102073;28;20023;-77
2021/08/14 03:46:28;;;;;;;19.88;9.93;;;;;;;17.96;97.32;98119.63;5104457;27;20030;-77
2021/08/14 03:48:53;;;;;;;19.08;9.57;;;;;;;18.03;97.33;98110.00;5116247;28;20419;-77
2021/08/14 03:51:19;;;;;;;19.10;10.48;;;;;;;17.91;98.10;98111.00;5119741;27;20027;-77
2021/08/14 03:53:44;;;;;;;19.70;11.35;;;;;;;17.85;98.72;98113.25;5113993;28;20024;-77
2021/08/14 03:56:10;;;;;;;21.13;11.25;;;;;;;17.88;98.43;98104.88;5094031;28;20032;-77
2021/08/14 03:58:35;;;;;;;24.35;12.00;;;;;;;17.79;99.01;98102.94;5098954;28;20028;-77
2021/08/14 04:01:02;;;;;;;17.10;11.15;;;;;;;17.70;100.00;98113.63;5098358;28;20402;-78
2021/08/14 04:03:28;;;;;;;18.15;11.77;;;;;;;17.80;99.45;98120.91;5110762;28;20494;-77
2021/08/14 04:05:53;;;;;;;18.98;12.38;;;;;;;17.78;99.60;98120.13;5114371;27;20070;-77
2021/08/14 04:08:19;;;;;;;32.55;18.90;;;;;;;17.78;100.00;98117.44;5113066;28;20448;-76
2021/08/14 04:10:45;;;;;;;22.38;14.85;;;;;;;17.80;99.43;98115.47;5098814;28;20114;-78
2021/08/14 04:13:10;;;;;;;17.83;10.73;;;;;;;17.95;97.87;98123.31;5101410;28;20447;-78
2021/08/14 04:15:36;;;;;;;24.13;10.70;;;;;;;18.10;95.91;98122.03;5117011;28;20491;-77
2021/08/14 04:18:02;;;;;;;20.50;12.13;;;;;;;18.20;95.47;98118.44;5123920;27;20015;-77
2021/08/14 04:20:27;;;;;;;28.20;14.57;;;;;;;18.35;94.91;98119.00;5097120;28;20038;-77
2021/08/14 04:22:53;;;;;;;16.38;10.48;;;;;;;18.36;96.02;98127.00;5118076;28;20043;-77
2021/08/14 04:25:18;;;;;;;15.20;9.70;;;;;;;18.42;95.55;98128.34;5117523;28;20019;-77
2021/08/14 04:27:44;;;;;;;25.50;10.25;;;;;;;19.14;91.33;98131.16;5101622;28;20023;-76
2021/08/14 04:30:10;;;;;;;14.38;9.60;;;;;;;19.34;88.61;98133.00;5120278;28;20076;-78
2021/08/14 04:32:36;;;;;;;14.80;9.82;;;;;;;19.12;89.51;98123.19;5101372;28;20076;-77
2021/08/14 04:35:04;;;;;;;16.73;10.18;;;;;;;19.01;90.45;98128.66;5112574;28;20451;-77
2021/08/14 04:37:30;;;;;;;17.10;9.75;;;;;;;19.00;91.24;98128.81;5114291;28;20023;-77
2021/08/14 04:39:55;;;;;;;15.68;8.90;;;;;;;18.94;91.63;98122.94;5123692;28;20056;-77
2021/08/14 04:42:21;;;;;;;14.30;9.15;;;;;;;19.00;92.12;98123.38;5120684;28;20047;-77
2021/08/14 04:44:46;;;;;;;12.95;8.77;;;;;;;19.11;91.71;98115.16;5100444;28;20364;-77
2021/08/14 04:47:12;;;;;;;15.02;9.60;;;;;;;19.28;90.90;98118.13;5099441;28;20031;-77
2021/08/14 04:49:37;;;;;;;14.13;8.90;;;;;;;19.42;90.56;98128.66;5114856;28;20027;-77
2021/08/14 04:52:03;;;;;;;41.22;10.75;;;;;;;19.63;89.24;98115.03;5098521;27;20019;-78
2021/08/14 04:54:29;;;;;;;13.63;8.98;;;;;;;19.82;87.83;98117.81;5105948;27;20034;-78
2021/08/14 04:56:54;;;;;;;21.23;10.93;;;;;;;19.83;87.03;98121.38;5107636;27;20379;-75
2021/08/14 04:59:20;;;;;;;20.40;13.00;;;;;;;19.96;87.06;98122.84;5116552;27;20110;-80
2021/08/14 05:01:45;;;;;;;20.17;10.82;;;;;;;20.13;85.27;98115.88;5105020;27;20031;-80
2021/08/14 05:04:11;;;;;;;27.50;15.38;;;;;;;20.41;83.40;98116.94;5120869;27;20034;-77
2021/08/14 05:06:40;;;;;;;28.30;14.77;;;;;;;20.58;82.44;98121.66;5120066;27;20019;-79
2021/08/14 05:09:06;;;;;;;36.53;15.13;;;;;;;20.76;81.68;98117.25;5102793;28;20102;-79
2021/08/14 05:11:31;;;;;;;27.10;13.88;;;;;;;20.86;81.22;98125.38;5105246;27;20110;-80
2021/08/14 05:13:57;;;;;;;27.92;12.57;;;;;;;21.02;80.12;98129.22;5120244;27;20045;-78
2021/08/14 05:16:25;;;;;;;41.25;16.58;;;;;;;21.07;79.08;98129.63;5128771;27;20458;-79
2021/08/14 05:18:53;;;;;;;27.42;13.05;;;;;;;21.35;77.60;98132.50;5119600;27;20015;-78
2021/08/14 05:21:19;;;;;;;21.02;13.57;;;;;;;21.41;77.28;98142.78;5121419;27;20482;-79
2021/08/14 05:23:55;;;;;;;28.42;13.38;;;;;;;21.59;76.15;98141.00;5101939;27;20040;-79
2021/08/14 05:26:20;;;;;;;19.77;13.32;;;;;;;21.76;74.96;98142.06;5114218;27;20506;-79
2021/08/14 05:28:46;;;;;;;29.88;14.18;;;;;;;22.12;73.64;98147.50;5103217;27;20019;-80
2021/08/14 05:31:11;;;;;;;70.68;49.35;;;;;;;23.32;68.90;98137.91;5105066;27;20036;-78
2021/08/14 05:33:37;;;;;;;34.70;20.42;;;;;;;24.99;62.03;98155.41;5102080;27;20026;-78
2021/08/14 05:36:03;;;;;;;74.88;14.45;;;;;;;26.79;55.10;98157.28;5122222;27;20024;-78
2021/08/14 05:38:34;;;;;;;25.42;14.07;;;;;;;28.07;50.14;98172.88;5107304;27;20410;-78
2021/08/14 05:40:59;;;;;;;63.58;13.82;;;;;;;29.39;46.65;98161.56;5099862;28;20031;-78
2021/08/14 05:43:25;;;;;;;27.77;12.10;;;;;;;30.20;44.59;98166.44;5120962;27;20031;-80
2021/08/14 05:45:51;;;;;;;17.02;9.95;;;;;;;31.50;41.41;98164.38;5127532;27;20023;-79
2021/08/14 05:48:19;;;;;;;31.45;10.65;;;;;;;31.63;40.48;98156.91;5121938;27;20145;-79
2021/08/14 05:50:45;;;;;;;16.33;9.57;;;;;;;30.96;41.63;98168.09;5112234;28;20046;-80
2021/08/14 05:53:11;;;;;;;23.20;11.43;;;;;;;31.28;41.26;98172.00;5103310;27;20111;-79
2021/08/14 05:55:37;;;;;;;21.08;12.23;;;;;;;31.54;40.43;98173.94;5094821;28;20055;-79
2021/08/14 05:58:03;;;;;;;23.05;13.10;;;;;;;30.28;42.17;98179.22;5112184;28;20023;-80
2021/08/14 06:00:28;;;;;;;25.20;13.43;;;;;;;31.69;39.79;98160.75;5123573;27;20023;-79
2021/08/14 06:02:54;;;;;;;25.15;12.82;;;;;;;32.81;37.77;98168.81;5125405;27;20099;-80
2021/08/14 06:05:20;;;;;;;65.13;15.55;;;;;;;32.72;37.14;98169.09;5112204;27;20024;-81
2021/08/14 06:07:49;;;;;;;19.23;13.30;;;;;;;30.87;40.52;98172.06;5129412;27;20026;-81
2021/08/14 06:10:16;;;;;;;42.03;18.38;;;;;;;32.04;39.12;98186.31;5128684;27;20474;-82
2021/08/14 06:12:41;;;;;;;33.47;12.35;;;;;;;33.81;35.81;98159.66;5122625;27;20024;-89
2021/08/14 06:15:07;;;;;;;19.90;11.52;;;;;;;33.27;36.37;98163.88;5107426;27;20035;-90
2021/08/14 06:17:33;;;;;;;27.02;11.57;;;;;;;33.59;35.64;98146.19;5099179;28;20483;-87
2021/08/14 06:19:59;;;;;;;21.42;11.32;;;;;;;33.45;36.04;98152.00;5113461;28;20051;-91
2021/08/14 06:22:24;;;;;;;15.43;10.43;;;;;;;33.98;35.13;98163.53;5104769;27;20019;-90
2021/08/14 06:24:51;;;;;;;22.73;11.43;;;;;;;34.42;34.51;98166.09;5108078;27;20100;-91
2021/08/14 06:27:17;;;;;;;19.48;11.13;;;;;;;34.16;34.27;98146.94;5125452;27;20034;-90
2021/08/14 06:29:42;;;;;;;21.55;10.65;;;;;;;33.77;35.30;98151.78;5108963;27;20506;-90
2021/08/14 06:32:08;;;;;;;20.02;10.07;;;;;;;35.04;33.63;98155.72;5109321;28;20027;-91
2021/08/14 06:34:37;;;;;;;15.48;9.20;;;;;;;35.58;32.41;98155.56;5095990;28;20032;-90
2021/08/14 06:37:03;;;;;;;18.80;10.32;;;;;;;35.93;31.96;98149.19;5128532;27;20027;-90
2021/08/14 06:39:29;;;;;;;18.02;9.23;;;;;;;36.94;30.74;98153.19;5105072;27;20039;-90
2021/08/14 06:41:54;;;;;;;24.38;9.95;;;;;;;37.14;30.17;98137.97;5095977;28;20049;-91
2021/08/14 06:44:23;;;;;;;22.08;9.85;;;;;;;36.83;30.67;98150.44;5113234;27;20107;-91
2021/08/14 06:46:48;;;;;;;25.58;11.65;;;;;;;36.71;30.69;98150.47;5103817;28;20049;-90
2021/08/14 06:49:14;;;;;;;19.52;11.38;;;;;;;35.26;32.69;98157.75;5095338;28;20104;-90
2021/08/14 06:51:40;;;;;;;28.70;12.85;;;;;;;36.30;31.78;98150.66;5092516;28;20529;-91
2021/08/14 06:54:06;;;;;;;24.90;10.48;;;;;;;36.06;31.77;98157.31;5112680;28;20028;-90
2021/08/14 06:56:31;;;;;;;14.68;10.25;;;;;;;36.65;30.33;98156.19;5097715;27;20620;-93
2021/08/14 06:58:57;;;;;;;20.85;11.57;;;;;;;36.53;30.94;98159.00;5112514;28;20024;-91
2021/08/14 07:01:23;;;;;;;57.75;41.63;;;;;;;36.11;31.09;98136.00;5112875;28;20031;-90
2021/08/14 07:03:48;;;;;;;16.05;9.65;;;;;;;37.27;29.60;98126.50;5117493;27;20406;-91
2021/08/14 07:06:21;;;;;;;9.18;7.95;;;;;;;37.26;29.52;98141.53;5104691;28;20035;-92
2021/08/14 07:08:46;;;;;;;11.73;7.65;;;;;;;38.02;28.56;98134.53;5116148;27;20114;-91
2021/08/14 07:11:14;;;;;;;13.00;8.15;;;;;;;38.42;28.16;98138.78;5117370;27;20115;-91
2021/08/14 07:13:39;;;;;;;10.13;7.28;;;;;;;38.43;27.74;98132.09;5095125;28;20505;-91
2021/08/14 07:16:05;;;;;;;12.75;7.63;;;;;;;37.04;29.15;98123.84;5109615;27;20065;-91
2021/08/14 07:18:31;;;;;;;11.70;7.55;;;;;;;38.69;27.59;98129.63;5106304;27;20035;-89
2021/08/14 07:20:57;;;;;;;22.50;10.57;;;;;;;38.87;27.58;98137.72;5099876;27;20019;-91
2021/08/14 07:23:22;;;;;;;13.73;7.90;;;;;;;37.91;28.36;98137.16;5116415;27;20059;-91
2021/08/14 07:25:50;;;;;;;11.65;7.30;;;;;;;38.45;27.88;98131.84;5098329;27;20046;-91
2021/08/14 07:28:16;;;;;;;18.33;7.55;;;;;;;38.46;27.53;98130.72;5109011;28;20027;-91
2021/08/14 07:30:41;;;;;;;13.50;6.82;;;;;;;37.19;29.08;98135.28;5105045;27;20042;-90
2021/08/14 07:33:07;;;;;;;14.25;6.60;;;;;;;38.64;27.26;98137.97;5118503;27;20518;-90
2021/08/14 07:35:33;;;;;;;20.17;6.75;;;;;;;39.78;26.13;98128.34;5101358;27;20045;-88
2021/08/14 07:37:58;;;;;;;16.35;7.43;;;;;;;40.54;24.79;98121.34;5105338;28;20024;-90
2021/08/14 07:40:25;;;;;;;14.23;6.47;;;;;;;41.49;24.03;98113.53;5103732;28;20054;-90
2021/08/14 07:42:51;;;;;;;8.82;6.25;;;;;;;42.06;22.87;98114.09;5115503;28;20061;-90
2021/08/14 07:45:20;;;;;;;51.63;7.50;;;;;;;41.99;23.60;98112.72;5125250;28;20028;-89
2021/08/14 07:47:48;;;;;;;7.65;5.78;;;;;;;38.49;27.09;98128.25;5097154;28;20031;-90
2021/08/14 07:50:24;;;;;;;13.75;5.63;;;;;;;39.50;25.91;98131.44;5117716;28;20032;-90
2021/08/14 07:52:51;;;;;;;19.48;5.68;;;;;;;41.35;23.92;98132.06;5095029;28;20038;-90
2021/08/14 07:55:16;;;;;;;10.25;6.43;;;;;;;40.82;24.52;98125.69;5100495;28;20057;-90
2021/08/14 07:57:43;;;;;;;7.68;6.78;;;;;;;40.82;24.11;98117.25;5123510;28;20489;-90
2021/08/14 08:00:11;;;;;;;17.35;11.32;;;;;;;41.83;23.34;98123.13;5113801;28;20403;-89
2021/08/14 08:02:36;;;;;;;13.65;5.82;;;;;;;40.63;24.06;98118.88;5098458;28;20057;-89
2021/08/14 08:05:04;;;;;;;17.23;5.13;;;;;;;39.22;24.98;98120.50;5101353;28;20478;-89
2021/08/14 08:07:30;;;;;;;8.23;4.70;;;;;;;39.56;24.88;98102.38;5113397;28;20031;-90
2021/08/14 08:09:55;;;;;;;9.60;5.95;;;;;;;41.75;22.54;98120.03;5121612;28;20137;-92
2021/08/14 08:12:21;;;;;;;23.77;7.07;;;;;;;41.82;22.15;98104.56;5118032;28;20063;-92
2021/08/14 08:14:47;;;;;;;24.05;5.35;;;;;;;41.09;23.00;98103.03;5097921;28;20024;-91
2021/08/14 08:17:50;;;;;;;9.98;5.38;;;;;;;40.60;23.42;98094.16;5108435;28;20039;-89
2021/08/14 08:20:16;;;;;;;10.27;5.45;;;;;;;42.74;21.68;98100.44;5124991;28;20045;-91
2021/08/14 08:22:42;;;;;;;8.05;5.30;;;;;;;43.37;20.84;98073.38;5091985;28;20027;-89
2021/08/14 08:25:08;;;;;;;8.05;6.20;;;;;;;43.93;20.56;98090.69;5115871;27;20019;-89
2021/08/14 08:27:45;;;;;;;6.07;4.50;;;;;;;43.31;20.63;98094.25;5098975;28;20020;-90
2021/08/14 08:30:11;;;;;;;8.38;5.38;;;;;;;42.37;21.83;98095.19;5112031;28;20028;-91
2021/08/14 08:32:37;;;;;;;31.98;6.25;;;;;;;41.68;22.01;98092.19;5121080;27;20036;-90
2021/08/14 08:35:04;;;;;;;12.77;5.28;;;;;;;40.87;23.03;98103.22;5108289;27;20027;-89
2021/08/14 08:37:30;;;;;;;26.63;9.18;;;;;;;42.43;22.40;98093.22;5117190;27;20555;-89
2021/08/14 08:39:56;;;;;;;19.88;6.53;;;;;;;43.54;20.67;98087.03;5102798;27;20031;-91
2021/08/14 08:42:21;;;;;;;22.13;6.15;;;;;;;43.55;20.05;98080.28;5105887;28;20031;-90
2021/08/14 08:44:47;;;;;;;17.85;6.18;;;;;;;43.89;19.87;98083.94;5105212;27;20039;-89
2021/08/14 08:47:13;;;;;;;5.32;4.68;;;;;;;44.66;19.04;98093.31;5098600;28;20031;-90
2021/08/14 08:49:51;;;;;;;17.17;4.78;;;;;;;44.47;19.19;98076.28;5105208;27;20023;-89
2021/08/14 08:52:25;;;;;;;6.72;5.20;;;;;;;43.58;19.78;98072.06;5120436;27;20032;-90
2021/08/14 08:54:52;;;;;;;13.32;6.32;;;;;;;43.04;21.12;98052.41;5104927;28;20544;-91
2021/08/14 08:57:20;;;;;;;14.45;8.00;;;;;;;43.38;20.75;98071.41;5096860;28;20144;-91
2021/08/14 08:59:46;;;;;;;13.18;5.30;;;;;;;43.75;20.23;98076.44;5098416;28;20034;-87
2021/08/14 09:02:21;;;;;;;6.72;5.10;;;;;;;41.23;22.59;98080.84;5118397;27;20122;-91
2021/08/14 09:04:47;;;;;;;9.40;5.80;;;;;;;41.68;21.97;98066.03;5107215;28;20089;-92
2021/08/14 09:07:26;;;;;;;8.73;5.20;;;;;;;39.86;23.64;98068.16;5089850;28;20524;-90
2021/08/14 09:09:58;;;;;;;25.42;5.72;;;;;;;38.58;25.28;98055.91;5079041;28;20031;-90
2021/08/14 09:12:52;;;;;;;;;;;;;;;40.82;23.55;98068.69;5078863;28;20030;-91
2021/08/14 09:15:30;;;;;;;14.70;6.20;;;;;;;43.05;21.12;98073.00;5097230;28;20037;-92
2021/08/14 09:18:16;;;;;;;5.60;4.63;;;;;;;43.30;20.03;98057.88;5096712;28;20395;-91
2021/08/14 09:20:53;;;;;;;8.25;7.25;;;;;;;44.75;19.04;98058.44;5105263;28;20016;-90
2021/08/14 09:23:20;;;;;;;10.48;5.10;;;;;;;43.77;19.54;98048.81;5101607;27;20138;-90
2021/08/14 09:25:50;;;;;;;8.70;4.78;;;;;;;43.34;19.79;98059.00;5101052;28;20027;-92
2021/08/14 09:28:17;;;;;;;8.13;4.90;;;;;;;43.69;19.39;98036.16;5114180;28;20424;-91
2021/08/14 09:30:44;;;;;;;10.60;5.65;;;;;;;42.77;20.61;98042.69;5097673;28;20495;-91
2021/08/14 09:33:11;;;;;;;9.93;5.20;;;;;;;39.26;23.40;98035.69;5113975;28;20042;-90
2021/08/14 09:35:37;;;;;;;24.85;10.07;;;;;;;38.17;24.15;98039.72;5111191;27;20023;-90
2021/08/14 09:38:07;;;;;;;22.58;6.40;;;;;;;36.56;25.51;98027.44;5117653;27;20528;-91
2021/08/14 09:40:43;;;;;;;6.72;6.00;;;;;;;35.66;26.78;98032.66;5117571;27;20478;-89
2021/08/14 09:43:09;;;;;;;11.48;5.55;;;;;;;35.27;27.87;98047.28;5100264;27;20024;-90
2021/08/14 09:45:36;;;;;;;9.52;5.80;;;;;;;36.26;26.53;98035.16;5117077;27;20132;-91
2021/08/14 09:48:15;;;;;;;12.88;5.25;;;;;;;39.31;22.75;98026.50;5115889;27;20019;-91
2021/08/14 09:50:41;;;;;;;16.13;5.15;;;;;;;39.78;21.93;98021.84;5096740;28;20336;-91
2021/08/14 09:53:11;;;;;;;23.95;6.47;;;;;;;41.40;21.17;98025.28;5105284;27;20022;-91
2021/08/14 09:55:38;;;;;;;12.20;6.28;;;;;;;42.48;19.68;98020.03;5113907;28;20032;-91
2021/08/14 09:58:04;;;;;;;12.75;6.57;;;;;;;43.44;18.36;98008.22;5105036;27;20026;-91
2021/08/14 10:00:30;;;;;;;15.15;5.57;;;;;;;44.76;17.38;98009.25;5111045;27;20490;-91
2021/08/14 10:03:00;;;;;;;14.63;6.32;;;;;;;45.24;17.06;98000.66;5100115;28;20020;-91
2021/08/14 10:05:26;;;;;;;51.50;8.10;;;;;;;45.20;17.05;97993.94;5108789;27;20051;-92
2021/08/14 10:07:51;;;;;;;12.25;6.28;;;;;;;44.85;17.09;97983.16;5108804;28;20043;-92
2021/08/14 10:10:18;;;;;;;35.08;7.63;;;;;;;45.44;16.60;97986.19;5116006;27;20677;-91
2021/08/14 10:12:45;;;;;;;8.88;5.70;;;;;;;45.91;16.01;97990.72;5101753;28;20049;-91
2021/08/14 10:15:11;;;;;;;102.68;22.55;;;;;;;46.24;16.05;97983.03;5107959;27;20428;-91
2021/08/14 10:17:38;;;;;;;17.75;6.55;;;;;;;45.63;16.38;97988.97;5109534;27;20083;-92
2021/08/14 10:20:05;;;;;;;15.32;5.28;;;;;;;42.42;18.42;97962.94;5115820;27;20034;-92
2021/08/14 10:22:31;;;;;;;8.48;5.43;;;;;;;41.28;19.71;97969.34;5108271;27;20474;-91
2021/08/14 10:24:58;;;;;;;9.77;5.38;;;;;;;41.72;19.31;97963.97;5116012;27;20043;-91
2021/08/14 10:27:23;;;;;;;8.63;5.18;;;;;;;42.40;19.54;97969.94;5116433;27;20042;-91
2021/08/14 10:29:56;;;;;;;12.23;5.15;;;;;;;44.09;17.51;97970.00;5109704;28;20031;-91
2021/08/14 10:32:34;;;;;;;9.45;5.45;;;;;;;46.06;16.71;97987.63;5104642;28;20027;-91
2021/08/14 10:35:12;;;;;;;12.10;4.80;;;;;;;45.48;17.13;97975.09;5113502;28;20019;-92
2021/08/14 10:37:42;;;;;;;9.90;5.50;;;;;;;45.73;16.31;97974.69;5111222;27;20035;-91
2021/08/14 10:40:09;;;;;;;13.53;6.10;;;;;;;42.11;18.68;97961.34;5115654;27;20031;-91
2021/08/14 10:42:52;;;;;;;8.32;4.97;;;;;;;42.69;18.56;97962.50;5108945;27;20064;-91
2021/08/14 10:45:37;;;;;;;16.33;7.35;;;;;;;43.39;17.90;97971.59;5122558;27;20110;-92
2021/08/14 10:48:04;;;;;;;26.95;5.47;;;;;;;44.41;17.11;97961.75;5096011;28;20031;-93
2021/08/14 10:50:30;;;;;;;40.05;6.30;;;;;;;45.54;16.14;97962.53;5108333;27;20487;-92
2021/08/14 10:53:14;;;;;;;11.90;5.13;;;;;;;44.93;16.80;97957.91;5124875;27;20083;-89
2021/08/14 10:55:47;;;;;;;9.50;5.70;;;;;;;45.51;16.51;97960.34;5097949;28;20026;-92
2021/08/14 10:58:39;;;;;;;8.30;4.70;;;;;;;45.87;16.01;97944.44;5114140;27;20035;-92
2021/08/14 11:01:05;;;;;;;12.15;5.10;;;;;;;44.97;16.74;97947.69;5108420;27;20079;-93
2021/08/14 11:03:35;;;;;;;6.07;4.82;;;;;;;44.62;17.23;97946.22;5118885;27;20032;-91
2021/08/14 11:06:27;;;;;;;8.60;5.32;;;;;;;44.07;17.54;97941.25;5103472;27;20027;-90
2021/08/14 11:09:17;;;;;;;23.92;5.38;;;;;;;45.76;16.31;97942.94;5101398;27;20040;-92
2021/08/14 11:11:55;;;;;;;10.50;4.82;;;;;;;44.24;16.92;97942.47;5118938;27;20118;-92
2021/08/14 11:14:46;;;;;;;11.57;5.03;;;;;;;45.04;16.06;97936.81;5110903;28;20439;-91
2021/08/14 11:17:13;;;;;;;10.80;4.60;;;;;;;44.67;16.01;97900.13;5098263;28;20567;-92
2021/08/14 11:19:57;;;;;;;8.65;4.47;;;;;;;43.63;16.61;97928.19;5090434;28;20085;-91
2021/08/14 11:22:40;;;;;;;15.45;4.72;;;;;;;45.27;16.43;97935.88;5080562;28;20031;-91
2021/08/14 11:25:19;;;;;;;7.50;4.40;;;;;;;44.43;15.95;97910.59;5101746;28;20421;-91
2021/08/14 11:28:15;;;;;;;4.57;4.18;;;;;;;45.96;14.96;97919.06;5113896;27;20027;-91